Time;durP1;ratioP1;P1;durP2;ratioP2;P2;SDS_P1;SDS_P2;PMS_P1;PMS_P2;Temp;Humidity;BMP_temperature;BMP_pressure;BME280_temperature;BME280_humidity;BME280_pressure;Samples;Min_cycle;Max_cycle;Signal;HPM_P1;HPM_P2
2022/02/13 00:02:11;;;;;;;10.20;7.03;;;0.40;79.80;;;-2.23;81.86;98467.34;4997275;28;20539;-77
2022/02/13 00:04:38;;;;;;;8.53;6.60;;;0.40;79.30;;;-1.21;81.76;98629.72;4997226;28;20439;-78
2022/02/13 00:07:05;;;;;;;8.30;6.03;;;0.40;79.50;;;-1.25;82.22;98623.81;4997464;28;20435;-78
2022/02/13 00:09:32;;;;;;;7.40;6.47;;;0.40;79.60;;;-1.64;82.44;98581.00;5014313;28;20505;-76
2022/02/13 00:12:02;;;;;;;7.93;6.60;;;0.30;80.00;;;-1.29;82.89;98625.88;4997739;28;20490;-76
2022/02/13 00:14:30;;;;;;;9.70;6.57;;;0.30;80.50;;;-1.53;82.46;98598.69;4997574;28;20444;-77
2022/02/13 00:16:57;;;;;;;7.83;5.80;;;0.30;80.10;;;-1.38;82.71;98633.75;5016337;28;20438;-77
2022/02/13 00:19:24;;;;;;;7.10;6.33;;;0.20;80.40;;;-1.45;83.14;98634.22;4997365;28;20514;-77
2022/02/13 00:21:52;;;;;;;7.87;6.00;;;0.20;80.60;;;-1.51;83.25;98629.41;5013120;28;20479;-77
2022/02/13 00:24:19;;;;;;;8.50;6.53;;;0.10;80.80;;;-1.63;83.42;98619.78;4996833;28;20468;-76
2022/02/13 00:26:46;;;;;;;7.80;6.40;;;0.10;81.20;;;-1.63;83.42;98599.44;5014456;28;20427;-76
2022/02/13 00:29:14;;;;;;;10.97;7.33;;;0.10;81.80;;;-1.64;84.01;98602.22;4997077;28;20428;-77
2022/02/13 00:31:42;;;;;;;9.97;6.80;;;0.10;82.10;;;-2.02;84.20;98546.03;5013099;28;20483;-76
2022/02/13 00:34:08;;;;;;;7.83;5.83;;;0.00;82.50;;;-1.56;83.66;98602.44;5014089;28;20505;-75
2022/02/13 00:36:36;;;;;;;8.57;6.27;;;0.00;82.60;;;-1.65;84.24;98601.38;5014247;28;20439;-77
2022/02/13 00:39:03;;;;;;;9.83;6.73;;;0.00;82.80;;;-1.62;84.81;98608.22;5013982;28;20463;-75
2022/02/13 00:41:30;;;;;;;9.10;6.60;;;0.00;82.80;;;-1.88;84.54;98574.91;5014170;28;20513;-76
2022/02/13 00:43:57;;;;;;;7.63;6.70;;;-0.10;82.90;;;-1.71;84.71;98602.72;5014683;28;20479;-77
2022/02/13 00:46:26;;;;;;;7.23;6.00;;;-0.10;83.10;;;-1.85;85.15;98584.44;4996542;28;20489;-78
2022/02/13 00:48:54;;;;;;;8.13;6.67;;;-0.20;83.80;;;-1.71;85.05;98602.72;5014092;28;20482;-78
2022/02/13 00:51:21;;;;;;;7.70;6.30;;;-0.10;84.00;;;-1.73;85.25;98602.00;4997451;28;20448;-76
2022/02/13 00:53:48;;;;;;;7.87;5.97;;;-0.10;83.90;;;-1.83;84.72;98587.78;4996453;28;20443;-77
2022/02/13 00:56:16;;;;;;;8.40;6.20;;;-0.20;84.00;;;-1.66;84.95;98597.06;5014059;28;20451;-77
2022/02/13 00:58:44;;;;;;;11.80;6.90;;;-0.10;83.90;;;-1.73;84.24;98574.66;4997468;28;20463;-77
2022/02/13 01:01:11;;;;;;;6.47;5.77;;;0.00;83.50;;;-1.54;85.15;98587.25;4996660;28;20782;-78
2022/02/13 01:03:40;;;;;;;10.27;6.20;;;0.00;84.00;;;-1.59;84.45;98582.31;5014558;28;20470;-78
2022/02/13 01:06:08;;;;;;;13.83;6.77;;;0.00;82.70;;;-2.10;83.96;98492.84;5014034;28;20443;-79
2022/02/13 01:08:35;;;;;;;9.00;6.40;;;0.10;82.50;;;-1.57;84.07;98587.50;5013537;28;20530;-79
2022/02/13 01:11:02;;;;;;;7.77;5.80;;;0.10;81.90;;;-1.92;83.77;98540.84;5014041;28;20539;-79
2022/02/13 01:13:29;;;;;;;8.83;6.73;;;0.00;81.90;;;-1.64;83.83;98592.47;5013936;28;20443;-78
2022/02/13 01:15:58;;;;;;;10.60;7.50;;;0.00;82.20;;;-1.68;84.24;98580.41;5012828;28;20912;-78
2022/02/13 01:18:26;;;;;;;9.60;5.70;;;0.00;82.30;;;-2.05;84.08;98531.22;4996325;28;20954;-77
2022/02/13 01:20:54;;;;;;;9.27;6.27;;;0.00;82.60;;;-1.68;84.49;98583.06;4996698;28;20481;-77
2022/02/13 01:23:21;;;;;;;9.60;7.40;;;0.00;82.60;;;-1.99;84.27;98540.47;5013096;28;20478;-77
2022/02/13 01:25:48;;;;;;;9.30;6.33;;;-0.10;82.20;;;-1.64;83.89;98581.00;5013611;28;20493;-76
2022/02/13 01:28:15;;;;;;;7.63;6.30;;;0.00;82.40;;;-1.87;83.79;98565.16;4995952;28;20490;-77
2022/02/13 01:30:43;;;;;;;8.87;6.63;;;-0.10;81.70;;;-1.74;83.87;98587.06;5013191;28;20506;-77
2022/02/13 01:33:10;;;;;;;9.03;7.30;;;-0.10;82.40;;;-1.78;84.14;98592.72;4996695;28;20439;-77
2022/02/13 01:35:37;;;;;;;7.40;6.13;;;-0.20;82.20;;;-1.84;83.93;98596.72;5014484;28;20431;-75
2022/02/13 01:38:05;;;;;;;10.00;7.13;;;-0.20;82.30;;;-1.92;84.17;98599.09;4995997;28;20458;-76
2022/02/13 01:40:32;;;;;;;9.53;7.27;;;-0.30;82.40;;;-1.93;84.87;98597.44;4996094;28;20522;-76
2022/02/13 01:42:59;;;;;;;8.63;6.63;;;-0.30;82.90;;;-2.05;84.53;98580.72;4996033;28;20462;-76
2022/02/13 01:45:26;;;;;;;9.33;7.20;;;-0.30;83.20;;;-1.93;84.09;98592.13;4996312;28;20439;-77
2022/02/13 01:47:53;;;;;;;8.63;6.77;;;-0.30;82.50;;;-2.40;83.84;98516.31;4999187;28;20479;-76
2022/02/13 01:50:20;;;;;;;11.87;6.37;;;-0.30;82.50;;;-1.88;84.17;98587.31;4999317;28;20530;-76
2022/02/13 01:52:47;;;;;;;9.73;7.10;;;-0.30;82.30;;;-1.88;83.38;98589.97;4999564;28;20443;-77
2022/02/13 01:55:15;;;;;;;12.37;6.80;;;-0.30;81.30;;;-1.93;83.69;98589.47;5017035;28;20439;-77
2022/02/13 01:57:42;;;;;;;9.90;7.20;;;-0.30;81.60;;;-1.96;84.04;98582.63;4999656;28;20837;-76
2022/02/13 02:00:11;;;;;;;8.60;7.57;;;-0.30;81.30;;;-1.97;84.09;98559.75;5016984;28;20462;-76
2022/02/13 02:02:38;;;;;;;12.60;7.83;;;-0.30;81.60;;;-1.90;83.15;98571.53;4998919;28;20470;-77
2022/02/13 02:05:06;;;;;;;12.10;7.57;;;-0.20;80.80;;;-2.06;83.64;98566.59;4999450;28;20451;-75
2022/02/13 02:07:33;;;;;;;10.63;7.40;;;-0.30;81.10;;;-1.93;83.41;98568.28;4999047;28;20447;-77
2022/02/13 02:10:00;;;;;;;8.70;7.00;;;-0.30;81.00;;;-1.89;83.42;98556.50;4998995;28;20522;-76
2022/02/13 02:12:28;;;;;;;9.17;7.13;;;-0.30;81.40;;;-2.02;83.70;98554.84;4999069;28;20521;-76
2022/02/13 02:14:56;;;;;;;11.00;7.40;;;-0.30;81.10;;;-2.24;82.99;98515.13;4998724;28;20650;-77
2022/02/13 02:17:23;;;;;;;10.17;6.40;;;-0.40;81.30;;;-2.07;83.93;98554.34;5016016;28;20835;-77
2022/02/13 02:19:50;;;;;;;10.20;6.53;;;-0.40;81.50;;;-1.94;82.78;98561.31;4998700;28;20760;-77
2022/02/13 02:22:17;;;;;;;9.63;7.00;;;-0.30;80.60;;;-2.25;83.39;98535.47;4998655;28;20477;-77
2022/02/13 02:24:46;;;;;;;8.47;7.30;;;-0.40;80.90;;;-2.23;83.71;98548.56;4998872;28;20470;-76
2022/02/13 02:27:14;;;;;;;10.00;7.63;;;-0.50;81.10;;;-2.26;84.27;98568.22;5016349;28;20547;-76
2022/02/13 02:29:41;;;;;;;9.10;6.63;;;-0.60;81.60;;;-2.17;84.29;98558.69;5016558;28;20439;-76
2022/02/13 02:32:11;;;;;;;11.43;7.03;;;-0.60;82.20;;;-2.19;84.52;98563.28;4999439;28;20459;-77
2022/02/13 02:34:39;;;;;;;11.47;7.67;;;-0.60;82.50;;;-2.12;83.44;98561.81;5016216;28;20432;-77
2022/02/13 02:37:06;;;;;;;10.43;7.33;;;-0.50;81.40;;;-2.16;83.45;98557.72;4998278;28;20961;-76
2022/02/13 02:39:33;;;;;;;8.30;7.40;;;-0.50;80.40;;;-2.25;83.40;98561.09;4999476;28;20491;-76
2022/02/13 02:42:02;;;;;;;10.40;8.23;;;-0.60;80.50;;;-2.40;83.65;98526.91;5019519;28;20442;-76
2022/02/13 02:44:29;;;;;;;11.37;8.17;;;-0.60;81.00;;;-2.31;83.63;98557.97;5001207;28;20443;-76
2022/02/13 02:46:56;;;;;;;8.97;7.13;;;-0.60;80.50;;;-2.37;83.41;98553.13;5002203;28;20452;-76
2022/02/13 02:49:23;;;;;;;9.30;7.17;;;-0.70;80.80;;;-2.89;83.65;98481.28;4998955;28;20532;-76
2022/02/13 02:51:50;;;;;;;11.17;8.17;;;-0.70;80.90;;;-2.58;83.97;98516.81;4999219;28;20845;-77
2022/02/13 02:54:17;;;;;;;14.77;8.00;;;-0.70;81.20;;;-2.49;83.85;98541.72;5016446;28;20910;-77
2022/02/13 02:56:44;;;;;;;10.30;7.67;;;-0.80;81.20;;;-3.15;83.64;98452.44;5015572;28;20432;-77
2022/02/13 02:59:13;;;;;;;13.03;7.23;;;-0.80;81.50;;;-2.51;83.61;98546.28;5015865;28;20439;-76
2022/02/13 03:01:40;;;;;;;13.47;7.43;;;-0.90;81.60;;;-2.64;84.12;98543.75;4999037;28;20493;-77
2022/02/13 03:04:06;;;;;;;9.13;7.60;;;-0.90;82.20;;;-2.97;84.30;98489.81;5016021;28;20450;-76
2022/02/13 03:06:33;;;;;;;13.23;8.10;;;-1.00;82.20;;;-2.58;84.42;98545.91;5015765;28;20482;-77
2022/02/13 03:09:00;;;;;;;10.50;7.47;;;-1.00;82.70;;;-2.64;84.68;98541.09;5015741;28;20912;-78
2022/02/13 03:11:28;;;;;;;9.13;7.20;;;-1.00;82.20;;;-2.66;84.68;98537.72;4998370;28;20471;-77
2022/02/13 03:13:55;;;;;;;10.77;7.70;;;-1.00;82.40;;;-2.63;84.40;98542.78;4998514;28;20502;-76
2022/02/13 03:16:24;;;;;;;8.47;7.23;;;-1.00;82.40;;;-2.65;84.33;98538.56;5015582;28;20467;-77
2022/02/13 03:18:52;;;;;;;8.90;8.00;;;-1.00;82.50;;;-2.68;84.49;98539.63;5015660;28;20439;-76
2022/02/13 03:21:19;;;;;;;14.10;7.83;;;-1.10;82.50;;;-2.78;85.09;98549.25;4998563;28;20463;-76
2022/02/13 03:23:46;;;;;;;10.60;7.57;;;-1.10;82.40;;;-2.79;85.00;98552.88;5020249;28;20585;-75
2022/02/13 03:26:13;;;;;;;10.90;7.43;;;-1.20;82.70;;;-2.91;84.80;98529.03;5020337;28;20459;-75
2022/02/13 03:28:40;;;;;;;9.07;7.30;;;-1.20;83.00;;;-3.04;85.52;98523.00;5036849;28;20427;-76
2022/02/13 03:31:07;;;;;;;12.23;8.17;;;-1.20;83.30;;;-2.83;85.29;98546.09;5011057;28;20443;-77
2022/02/13 03:33:36;;;;;;;13.40;8.27;;;-1.20;83.50;;;-2.91;85.48;98544.91;4998356;28;20447;-76
2022/02/13 03:36:04;;;;;;;10.00;8.23;;;-1.20;84.20;;;-2.99;85.15;98540.19;5015569;28;20436;-77
2022/02/13 03:38:31;;;;;;;9.47;7.47;;;-1.30;84.10;;;-3.26;85.50;98495.53;4997735;28;20435;-76
2022/02/13 03:40:58;;;;;;;10.27;7.60;;;-1.30;83.60;;;-2.96;85.60;98554.13;4997653;28;20787;-76
2022/02/13 03:43:25;;;;;;;10.93;7.87;;;-1.30;84.20;;;-3.09;85.73;98541.00;5015724;28;20445;-77
2022/02/13 03:45:52;;;;;;;12.80;7.67;;;-1.30;84.60;;;-3.09;85.96;98556.88;4996996;28;20583;-76
2022/02/13 03:48:19;;;;;;;12.37;7.90;;;-1.40;84.30;;;-3.25;86.08;98525.44;4997196;28;20570;-75
2022/02/13 03:50:47;;;;;;;13.17;9.00;;;-1.50;85.00;;;-3.14;86.13;98547.47;5014422;28;20582;-76
2022/02/13 03:53:14;;;;;;;10.73;7.40;;;-1.40;85.20;;;-3.18;86.44;98540.72;4997280;28;20474;-76
2022/02/13 03:55:41;;;;;;;12.40;9.37;;;-1.50;85.60;;;-3.44;87.23;98517.09;5013196;28;20543;-76
2022/02/13 03:58:08;;;;;;;10.97;8.97;;;-1.60;86.40;;;-3.28;87.34;98542.38;5014966;28;20478;-77
2022/02/13 04:00:35;;;;;;;10.13;7.87;;;-1.60;87.20;;;-3.35;87.72;98541.16;5014662;28;20498;-77
2022/02/13 04:03:03;;;;;;;9.63;7.67;;;-1.60;87.40;;;-3.35;88.08;98546.44;4997064;28;20509;-77
2022/02/13 04:05:30;;;;;;;8.57;7.67;;;-1.70;87.80;;;-3.36;88.04;98540.28;4996946;28;20880;-77
2022/02/13 04:07:58;;;;;;;11.37;8.50;;;-1.60;88.40;;;-3.53;87.86;98516.94;4996721;28;20427;-75
2022/02/13 04:10:25;;;;;;;10.10;7.90;;;-1.70;87.90;;;-3.48;87.84;98531.50;4996455;28;20482;-76
2022/02/13 04:12:52;;;;;;;11.17;7.83;;;-1.70;88.30;;;-3.76;87.93;98495.72;4996688;28;20944;-77
2022/02/13 04:15:19;;;;;;;12.40;7.87;;;-1.70;88.10;;;-3.54;88.57;98542.53;5014399;28;20431;-77
2022/02/13 04:17:46;;;;;;;9.53;8.27;;;-1.80;89.20;;;-3.61;88.75;98547.41;4996195;28;20451;-77
2022/02/13 04:20:13;;;;;;;11.43;8.17;;;-1.90;89.40;;;-3.57;89.33;98548.00;5014280;28;20529;-77
2022/02/13 04:22:40;;;;;;;10.53;8.20;;;-1.90;90.30;;;-3.71;89.23;98515.53;4996381;28;20522;-76
2022/02/13 04:25:09;;;;;;;14.80;7.77;;;-1.90;90.60;;;-3.66;89.07;98552.16;4996305;28;20783;-76
2022/02/13 04:27:36;;;;;;;11.03;8.10;;;-2.00;90.40;;;-3.60;89.07;98530.59;4996319;28;20947;-76
2022/02/13 04:30:06;;;;;;;11.27;7.47;;;-1.90;90.50;;;-3.74;88.89;98510.47;4996350;28;20937;-76
2022/02/13 04:32:33;;;;;;;11.23;8.20;;;-1.90;90.20;;;-3.64;89.24;98536.22;5014240;28;20475;-76
2022/02/13 04:35:01;;;;;;;13.57;8.07;;;-1.90;90.30;;;-3.60;89.45;98532.38;4996321;28;20447;-75
2022/02/13 04:37:30;;;;;;;11.20;7.80;;;-1.90;90.50;;;-3.70;89.31;98517.22;5014511;28;20451;-76
2022/02/13 04:39:57;;;;;;;12.07;7.63;;;-2.00;90.60;;;-3.60;89.51;98521.81;5014436;28;20469;-75
2022/02/13 04:42:25;;;;;;;10.60;7.67;;;-1.90;90.50;;;-3.75;89.60;98515.88;4996176;28;20546;-75
2022/02/13 04:44:52;;;;;;;11.57;7.70;;;-1.90;90.50;;;-3.86;89.64;98516.66;4996411;28;20526;-75
2022/02/13 04:47:19;;;;;;;11.53;7.73;;;-2.00;90.60;;;-3.79;90.02;98506.47;5014338;28;20459;-75
2022/02/13 04:49:47;;;;;;;12.40;8.60;;;-2.00;91.10;;;-3.81;90.00;98509.25;4996238;28;20446;-77
2022/02/13 04:52:14;;;;;;;9.10;7.70;;;-2.00;91.00;;;-3.64;89.98;98517.72;4996569;28;20439;-75
2022/02/13 04:54:41;;;;;;;10.37;7.93;;;-2.00;91.40;;;-3.62;90.18;98508.75;4996238;28;20455;-78
2022/02/13 04:57:11;;;;;;;11.50;8.30;;;-1.90;90.90;;;-3.57;89.30;98518.94;4996472;28;20455;-77
2022/02/13 04:59:39;;;;;;;9.80;7.87;;;-1.90;90.60;;;-3.55;89.51;98511.78;4996123;28;20443;-77
2022/02/13 05:02:07;;;;;;;12.23;8.77;;;-1.90;90.50;;;-3.65;89.47;98492.28;4996651;28;20450;-77
2022/02/13 05:04:35;;;;;;;10.80;8.30;;;-1.90;90.60;;;-3.59;89.18;98503.22;4996238;28;20447;-77
2022/02/13 05:07:02;;;;;;;9.57;7.67;;;-1.90;90.30;;;-3.84;88.98;98441.63;4996608;28;20447;-77
2022/02/13 05:09:29;;;;;;;11.17;8.23;;;-1.80;90.50;;;-3.66;88.86;98469.47;5013630;28;20447;-77
2022/02/13 05:11:56;;;;;;;12.77;9.10;;;-1.70;90.10;;;-3.46;88.75;98497.03;4996285;28;20447;-77
2022/02/13 05:14:24;;;;;;;9.90;8.40;;;-1.80;90.00;;;-3.45;88.67;98502.19;5013982;28;20443;-77
2022/02/13 05:16:52;;;;;;;9.63;8.30;;;-1.80;89.80;;;-3.65;88.42;98463.22;5014158;28;20451;-77
2022/02/13 05:19:20;;;;;;;11.70;8.00;;;-1.70;89.30;;;-3.74;88.53;98452.38;4996839;28;20452;-77
2022/02/13 05:21:48;;;;;;;13.97;9.13;;;-1.70;89.20;;;-3.45;88.11;98494.25;4999769;28;20467;-76
2022/02/13 05:24:15;;;;;;;10.90;8.67;;;-1.70;88.70;;;-3.46;88.30;98500.50;5017225;28;20486;-78
2022/02/13 05:26:42;;;;;;;12.50;8.67;;;-1.70;88.70;;;-3.62;88.43;98481.47;5016645;28;20451;-78
2022/02/13 05:29:10;;;;;;;8.57;7.40;;;-1.80;89.70;;;-3.44;88.38;98492.47;5017768;28;20470;-77
2022/02/13 05:31:37;;;;;;;11.43;8.83;;;-1.80;89.10;;;-3.53;88.55;98480.78;4999777;28;20888;-77
2022/02/13 05:34:05;;;;;;;9.37;8.00;;;-1.80;88.90;;;-3.46;88.14;98492.56;5017592;28;20431;-78
2022/02/13 05:36:32;;;;;;;10.37;9.27;;;-1.80;88.90;;;-3.51;88.30;98493.88;4999971;28;20530;-76
2022/02/13 05:38:59;;;;;;;10.87;8.70;;;-1.80;89.20;;;-3.43;87.92;98496.81;4999806;28;20440;-77
2022/02/13 05:41:26;;;;;;;9.90;8.53;;;-1.80;89.30;;;-3.48;88.09;98489.22;4999747;28;20462;-77
2022/02/13 05:43:53;;;;;;;10.97;9.30;;;-1.80;88.90;;;-3.55;87.75;98482.72;5017954;28;20489;-76
2022/02/13 05:46:20;;;;;;;12.37;8.47;;;-1.80;88.60;;;-3.50;87.71;98493.78;5000631;28;20455;-76
2022/02/13 05:48:47;;;;;;;12.40;8.37;;;-1.80;88.50;;;-3.75;88.02;98455.97;5000081;28;20530;-77
2022/02/13 05:51:16;;;;;;;11.40;8.40;;;-1.80;88.50;;;-3.88;88.32;98450.75;5016901;28;20915;-77
2022/02/13 05:53:43;;;;;;;10.10;8.77;;;-1.90;88.00;;;-3.65;88.88;98481.69;4999275;28;20546;-76
2022/02/13 05:56:10;;;;;;;9.67;7.73;;;-1.90;89.30;;;-4.05;88.83;98416.84;5000308;28;20525;-76
2022/02/13 05:58:39;;;;;;;11.23;8.03;;;-1.90;90.10;;;-3.72;88.95;98486.59;5000527;28;20860;-75
2022/02/13 06:01:06;;;;;;;11.07;9.00;;;-2.00;89.80;;;-3.92;89.13;98448.44;4999560;28;20463;-76
2022/02/13 06:03:34;;;;;;;10.67;9.57;;;-2.00;90.60;;;-3.93;89.41;98449.41;5002053;28;20466;-77
2022/02/13 06:06:01;;;;;;;11.70;8.90;;;-2.10;90.40;;;-3.68;89.08;98479.28;5023509;28;20428;-76
2022/02/13 06:08:29;;;;;;;10.63;9.07;;;-2.00;90.90;;;-3.67;88.87;98486.25;5006554;28;20458;-77
2022/02/13 06:10:56;;;;;;;14.40;8.97;;;-2.00;90.30;;;-3.71;89.23;98488.28;5021988;28;20432;-76
2022/02/13 06:13:24;;;;;;;16.23;9.03;;;-2.00;90.40;;;-3.68;88.92;98476.66;5010242;28;20439;-75
2022/02/13 06:15:51;;;;;;;10.80;8.37;;;-2.00;90.40;;;-3.73;89.14;98480.44;4998924;28;20783;-69
2022/02/13 06:18:18;;;;;;;15.63;8.57;;;-2.00;90.60;;;-3.67;89.03;98478.34;4999075;28;20781;-70
2022/02/13 06:20:46;;;;;;;11.00;9.30;;;-2.00;90.30;;;-3.62;88.43;98470.91;4998801;28;20990;-71
2022/02/13 06:23:13;;;;;;;13.60;8.37;;;-2.00;90.00;;;-3.62;88.83;98469.13;4998845;28;20463;-70
2022/02/13 06:25:41;;;;;;;9.90;8.90;;;-1.90;89.50;;;-3.49;88.29;98479.59;4998536;28;20521;-69
2022/02/13 06:28:08;;;;;;;11.70;8.50;;;-1.80;89.10;;;-3.48;87.81;98467.25;5016886;28;20467;-71
2022/02/13 06:30:35;;;;;;;10.90;8.20;;;-1.80;88.70;;;-3.57;88.43;98489.88;5016804;28;20440;-71
2022/02/13 06:33:03;;;;;;;12.17;8.80;;;-1.80;88.20;;;-3.88;87.72;98431.41;4997994;28;20435;-70
2022/02/13 06:35:31;;;;;;;10.83;7.70;;;-1.90;89.10;;;-3.45;88.06;98483.69;4998658;28;20446;-72
2022/02/13 06:38:00;;;;;;;16.30;8.00;;;-1.80;89.10;;;-3.47;87.75;98485.59;5016328;28;20786;-73
2022/02/13 06:40:28;;;;;;;9.30;7.90;;;-1.80;88.50;;;-3.74;87.44;98428.59;5015976;28;20549;-70
2022/02/13 06:42:56;;;;;;;11.50;8.97;;;-1.80;87.90;;;-3.43;87.41;98476.50;5015867;28;20954;-70
2022/02/13 06:45:24;;;;;;;11.30;7.73;;;-1.70;87.70;;;-3.34;87.67;98476.78;4999165;28;20444;-70
2022/02/13 06:47:52;;;;;;;10.40;9.30;;;-1.70;87.60;;;-3.29;87.38;98482.53;4998368;28;20447;-72
2022/02/13 06:50:19;;;;;;;11.00;7.87;;;-1.60;86.80;;;-3.36;86.68;98446.97;4999183;28;20440;-72
2022/02/13 06:52:46;;;;;;;10.60;9.27;;;-1.50;86.60;;;-3.24;86.60;98459.25;4997896;28;20530;-72
2022/02/13 06:55:13;;;;;;;14.03;9.30;;;-1.50;85.70;;;-3.16;86.42;98462.16;4997808;28;20440;-73
2022/02/13 06:57:44;;;;;;;12.70;8.77;;;-1.40;85.60;;;-3.10;86.29;98467.94;4998326;28;20526;-76
2022/02/13 07:00:15;;;;;;;10.47;8.50;;;-1.40;84.70;;;-2.94;85.61;98470.25;5015503;28;20462;-76
2022/02/13 07:02:42;;;;;;;12.10;8.53;;;-1.30;84.70;;;-2.92;85.37;98463.88;4998591;28;20454;-77
2022/02/13 07:05:09;;;;;;;9.83;8.30;;;-1.20;84.10;;;-3.47;85.29;98369.34;4997867;28;20506;-73
2022/02/13 07:07:37;;;;;;;12.03;9.77;;;-1.20;83.40;;;-2.83;85.18;98466.75;5015613;28;20443;-73
2022/02/13 07:10:07;;;;;;;13.90;9.23;;;-1.20;83.40;;;-3.18;84.73;98405.09;5016013;28;20908;-73
2022/02/13 07:12:35;;;;;;;11.37;7.93;;;-1.10;83.10;;;-3.10;84.78;98420.34;5000437;28;20791;-73
2022/02/13 07:15:02;;;;;;;11.60;9.50;;;-1.10;82.70;;;-2.70;84.54;98462.19;5015659;28;20459;-73
2022/02/13 07:17:31;;;;;;;11.00;8.67;;;-1.00;82.30;;;-2.60;83.68;98465.81;5037706;28;20427;-72
2022/02/13 07:19:58;;;;;;;10.43;9.37;;;-1.00;81.90;;;-2.50;83.32;98463.28;5027338;28;20439;-72
2022/02/13 07:22:24;;;;;;;8.63;7.73;;;-0.90;81.30;;;-2.52;83.69;98470.50;5017601;28;20550;-76
2022/02/13 07:24:52;;;;;;;12.50;9.33;;;-0.80;80.80;;;-2.43;83.56;98463.63;5016440;28;20505;-76
2022/02/13 07:27:19;;;;;;;11.10;8.80;;;-0.80;81.00;;;-2.30;82.98;98460.84;4997796;28;20498;-75
2022/02/13 07:29:46;;;;;;;10.23;9.00;;;-0.70;80.30;;;-2.30;82.58;98448.47;5015806;28;20453;-74
2022/02/13 07:32:13;;;;;;;12.97;9.70;;;-0.60;80.00;;;-2.28;82.71;98445.69;5015804;28;20515;-74
2022/02/13 07:34:41;;;;;;;12.17;8.10;;;-0.60;80.00;;;-2.35;82.89;98433.91;4997833;28;20451;-73
2022/02/13 07:37:08;;;;;;;11.53;9.33;;;-0.60;79.70;;;-2.29;82.44;98439.56;5015543;28;20538;-73
2022/02/13 07:39:38;;;;;;;11.30;9.10;;;-0.50;79.20;;;-2.26;82.31;98422.59;5014921;28;20714;-74
2022/02/13 07:42:05;;;;;;;12.03;10.67;;;-0.50;79.50;;;-2.14;81.69;98421.59;4997068;28;20463;-75
2022/02/13 07:44:32;;;;;;;13.83;9.90;;;-0.40;79.40;;;-1.95;81.23;98445.72;5014021;28;20440;-74
2022/02/13 07:47:00;;;;;;;11.97;8.37;;;-0.30;78.70;;;-1.80;80.96;98448.94;5014993;28;20423;-76
2022/02/13 07:49:27;;;;;;;9.93;7.83;;;-0.20;78.20;;;-1.69;80.60;98446.25;4997752;28;20452;-78
2022/02/13 07:51:55;;;;;;;14.97;10.40;;;-0.10;78.20;;;-1.64;80.22;98440.56;4998908;28;20582;-69
2022/02/13 07:54:22;;;;;;;12.90;10.10;;;0.00;77.70;;;-1.54;80.41;98443.28;5015141;28;20534;-75
2022/02/13 07:56:49;;;;;;;10.70;9.17;;;0.00;77.10;;;-1.40;80.33;98439.50;5014854;28;20497;-73
2022/02/13 07:59:16;;;;;;;13.43;9.83;;;0.10;77.50;;;-1.40;79.60;98442.16;4997697;28;20535;-75
2022/02/13 08:01:43;;;;;;;11.70;10.03;;;0.20;77.00;;;-1.25;78.92;98438.22;4996802;28;21007;-74
2022/02/13 08:04:10;;;;;;;11.93;9.60;;;0.30;76.60;;;-1.24;79.05;98445.19;4996494;28;20795;-75
2022/02/13 08:06:37;;;;;;;14.37;10.60;;;0.40;76.40;;;-0.95;78.20;98436.56;5014491;28;20873;-75
2022/02/13 08:09:05;;;;;;;12.83;9.63;;;0.50;76.10;;;-1.08;77.74;98417.38;4996376;28;20444;-74
2022/02/13 08:11:32;;;;;;;11.13;8.73;;;0.60;75.60;;;-0.90;77.95;98429.03;5014730;28;20528;-75
2022/02/13 08:14:00;;;;;;;12.60;9.40;;;0.70;75.60;;;-0.74;77.46;98417.09;4996610;28;20739;-75
2022/02/13 08:16:27;;;;;;;10.30;8.97;;;0.80;75.60;;;-0.77;77.36;98426.16;4996388;28;20447;-74
2022/02/13 08:18:54;;;;;;;14.87;9.70;;;0.90;75.00;;;-0.62;76.60;98429.31;4996517;28;20562;-75
2022/02/13 08:21:21;;;;;;;13.00;9.67;;;1.00;74.80;;;-0.39;76.74;98438.88;4996847;28;20970;-75
2022/02/13 08:23:49;;;;;;;12.67;8.47;;;1.10;74.80;;;-0.33;76.05;98433.88;5014292;28;20490;-75
2022/02/13 08:26:19;;;;;;;10.30;9.13;;;1.20;74.20;;;-0.26;75.48;98412.06;4996063;28;20444;-75
2022/02/13 08:28:46;;;;;;;15.40;9.20;;;1.30;74.20;;;-0.14;74.74;98410.97;5013832;28;20786;-74
2022/02/13 08:31:14;;;;;;;10.70;9.10;;;1.40;73.50;;;0.04;74.30;98412.97;5014166;28;20435;-75
2022/02/13 08:33:41;;;;;;;14.07;8.20;;;1.50;73.00;;;0.11;73.72;98414.09;5013743;28;20524;-73
2022/02/13 08:36:09;;;;;;;12.33;8.63;;;1.60;72.80;;;0.23;73.23;98407.69;5013868;28;20467;-75
2022/02/13 08:38:36;;;;;;;10.80;8.33;;;1.70;72.30;;;0.24;72.97;98409.34;4996382;28;20443;-74
2022/02/13 08:41:03;;;;;;;11.03;8.67;;;1.80;71.70;;;0.40;72.11;98418.59;4996422;28;20491;-75
2022/02/13 08:43:31;;;;;;;9.97;8.60;;;1.90;71.30;;;0.54;71.43;98420.81;4996825;28;20506;-74
2022/02/13 08:45:58;;;;;;;11.13;8.70;;;2.00;71.00;;;0.54;71.58;98410.19;5006735;28;20438;-74
2022/02/13 08:48:25;;;;;;;13.83;9.23;;;2.00;70.60;;;0.66;71.18;98405.53;5033813;28;20447;-75
2022/02/13 08:50:53;;;;;;;9.93;8.00;;;2.10;70.50;;;0.78;70.90;98411.53;5033894;28;20914;-75
2022/02/13 08:53:20;;;;;;;9.33;8.33;;;2.20;70.20;;;1.13;71.78;98411.88;5033790;28;20969;-75
2022/02/13 08:55:47;;;;;;;9.80;8.80;;;2.50;71.80;;;0.97;69.54;98404.47;5035789;28;20441;-75
2022/02/13 08:58:14;;;;;;;10.60;8.30;;;2.50;69.10;;;1.01;70.00;98411.22;5037800;28;20496;-78
2022/02/13 09:00:42;;;;;;;11.43;8.20;;;2.50;69.30;;;1.04;69.62;98404.72;5017304;28;20533;-77
2022/02/13 09:03:09;;;;;;;9.00;8.10;;;2.60;68.70;;;1.21;69.03;98401.31;5037990;28;20472;-75
2022/02/13 09:05:36;;;;;;;12.90;8.57;;;2.70;68.60;;;1.42;68.67;98401.09;5019416;28;20945;-76
2022/02/13 09:08:05;;;;;;;11.10;8.80;;;2.80;68.60;;;1.51;68.12;98394.03;5037293;28;20562;-75
2022/02/13 09:10:32;;;;;;;10.83;7.70;;;2.90;67.60;;;1.52;67.61;98398.41;5037195;28;20500;-76
2022/02/13 09:12:59;;;;;;;9.33;8.03;;;3.00;67.10;;;1.65;67.54;98390.03;5037641;28;20480;-74
2022/02/13 09:15:28;;;;;;;10.80;8.20;;;3.10;67.20;;;1.72;67.58;98382.28;5037577;28;20945;-74
2022/02/13 09:17:57;;;;;;;11.35;10.15;;;3.20;67.10;;;2.06;66.84;98383.47;5019576;28;20481;-75
2022/02/13 09:20:24;;;;;;;9.30;8.40;;;3.40;66.90;;;2.29;65.99;98380.34;5019612;28;20183;-75
2022/02/13 09:22:52;;;;;;;11.00;8.50;;;3.60;66.20;;;2.47;66.13;98380.34;5019563;28;20561;-77
2022/02/13 09:25:19;;;;;;;9.93;8.60;;;3.80;66.40;;;2.55;65.31;98388.38;5019673;28;20504;-77
2022/02/13 09:27:46;;;;;;;9.70;8.40;;;3.90;65.50;;;2.39;65.35;98373.09;5036762;28;20486;-76
2022/02/13 09:30:14;;;;;;;11.53;8.50;;;3.90;64.80;;;2.53;64.86;98383.22;5037786;28;20437;-77
2022/02/13 09:32:41;;;;;;;11.77;8.00;;;3.90;64.80;;;2.66;64.53;98379.31;5037384;28;20521;-75
2022/02/13 09:35:11;;;;;;;8.70;7.90;;;4.00;64.60;;;2.52;64.35;98362.03;5037457;28;20430;-76
2022/02/13 09:37:38;;;;;;;9.73;8.33;;;4.00;64.20;;;2.72;64.65;98376.00;5036731;28;20765;-78
2022/02/13 09:40:06;;;;;;;12.83;8.67;;;4.10;64.30;;;2.67;64.23;98376.47;5036405;28;20426;-78
2022/02/13 09:42:35;;;;;;;14.60;8.47;;;4.10;63.90;;;2.93;63.24;98370.31;5036773;28;20570;-76
2022/02/13 09:45:02;;;;;;;9.13;7.70;;;4.30;63.60;;;2.95;63.59;98346.09;5037580;28;20762;-77
2022/02/13 09:47:29;;;;;;;9.27;7.70;;;4.40;63.40;;;3.10;62.84;98360.53;5035923;28;20477;-77
2022/02/13 09:49:56;;;;;;;9.67;8.30;;;4.50;63.10;;;3.17;63.15;98359.91;5036888;28;20430;-77
2022/02/13 09:52:24;;;;;;;8.70;7.80;;;4.60;62.80;;;3.25;62.81;98349.25;5019010;28;20529;-78
2022/02/13 09:54:51;;;;;;;11.13;8.57;;;4.60;62.80;;;3.39;62.60;98359.34;5018879;28;20442;-77
2022/02/13 10:00:05;;;;;;;10.20;7.60;;;4.80;62.20;;;3.60;62.11;98350.06;5018847;28;20439;-78
2022/02/13 10:02:38;;;;;;;7.60;6.80;;;4.90;62.40;;;3.71;62.14;98345.41;5036776;28;20508;-79
2022/02/13 10:05:08;;;;;;;8.93;8.10;;;5.00;62.10;;;3.88;61.02;98343.63;5037641;28;20801;-78
2022/02/13 10:07:37;;;;;;;8.27;7.47;;;5.20;61.70;;;3.94;60.59;98338.44;5017639;28;20508;-77
2022/02/13 10:10:08;;;;;;;11.13;7.37;;;5.40;60.90;;;3.50;61.14;98270.06;5018500;28;20627;-76
2022/02/13 10:12:40;;;;;;;8.40;7.20;;;5.30;61.00;;;4.02;61.15;98321.59;5032240;28;20534;-77
2022/02/13 10:15:40;;;;;;;9.40;7.10;;;5.40;61.10;;;4.16;60.49;98328.09;5019026;28;20442;-76
2022/02/13 10:18:09;;;;;;;12.73;8.57;;;5.50;61.00;;;4.16;60.30;98322.75;5034659;28;20470;-76
2022/02/13 10:20:39;;;;;;;10.37;8.00;;;5.60;60.50;;;4.19;60.50;98311.75;5032876;28;20560;-76
2022/02/13 10:23:10;;;;;;;8.40;7.50;;;5.60;60.50;;;4.27;60.13;98313.56;5036322;28;20557;-74